createdAt,value
2022-09-22T00:01:18.945Z,3.80
2022-09-22T00:03:53.690Z,3.78
2022-09-22T00:06:23.926Z,4.47
2022-09-22T00:08:54.414Z,3.85
2022-09-22T00:11:28.924Z,4.00
2022-09-22T00:14:02.531Z,4.30
2022-09-22T00:16:33.526Z,4.22
2022-09-22T00:19:01.403Z,4.07
2022-09-22T00:21:30.904Z,3.95
2022-09-22T00:24:02.750Z,3.78
2022-09-22T00:26:31.325Z,4.03
2022-09-22T00:28:59.595Z,3.87
2022-09-22T00:31:27.632Z,4.18
2022-09-22T00:33:56.049Z,3.67
2022-09-22T00:36:25.836Z,3.75
2022-09-22T00:38:56.850Z,3.87
2022-09-22T00:41:31.032Z,3.92
2022-09-22T00:44:26.520Z,3.87
2022-09-22T00:49:29.822Z,4.62
2022-09-22T00:51:57.611Z,4.90
2022-09-22T00:54:25.157Z,5.25
2022-09-22T00:57:05.223Z,4.35
2022-09-22T00:59:33.125Z,4.20
2022-09-22T01:02:00.542Z,4.12
2022-09-22T01:04:29.132Z,3.67
2022-09-22T01:06:58.006Z,4.03
2022-09-22T01:09:25.996Z,4.37
2022-09-22T01:11:53.505Z,3.90
2022-09-22T01:14:38.111Z,3.70
2022-09-22T01:17:44.700Z,3.85
2022-09-22T01:20:27.271Z,4.00
2022-09-22T01:23:32.023Z,4.30
2022-09-22T01:26:27.802Z,4.50
2022-09-22T01:29:23.510Z,5.32
2022-09-22T01:32:01.370Z,4.65
2022-09-22T01:34:40.524Z,4.43
2022-09-22T01:37:12.318Z,3.97
2022-09-22T01:39:46.163Z,3.97
2022-09-22T01:42:35.683Z,4.78
2022-09-22T01:45:12.148Z,4.07
2022-09-22T01:47:47.530Z,5.10
2022-09-22T01:50:28.232Z,5.10
2022-09-22T01:52:59.486Z,5.37
2022-09-22T01:55:38.666Z,5.75
2022-09-22T01:58:13.702Z,5.35
2022-09-22T02:00:44.676Z,5.75
2022-09-22T02:03:25.772Z,5.50
2022-09-22T02:06:00.680Z,5.25
2022-09-22T02:08:33.514Z,5.60
2022-09-22T02:11:04.291Z,5.57
2022-09-22T02:13:31.911Z,4.90
2022-09-22T02:16:02.356Z,5.65
2022-09-22T02:18:39.707Z,5.75
2022-09-22T02:21:07.348Z,4.87
2022-09-22T02:23:35.923Z,4.95
2022-09-22T02:26:05.073Z,5.10
2022-09-22T02:28:33.758Z,5.37
2022-09-22T02:31:19.495Z,4.55
2022-09-22T02:33:48.795Z,4.07
2022-09-22T02:36:43.553Z,4.18
2022-09-22T02:39:19.511Z,4.62
2022-09-22T02:42:18.018Z,4.65
2022-09-22T02:44:52.205Z,4.53
2022-09-22T02:47:25.547Z,4.65
2022-09-22T02:49:55.206Z,4.30
2022-09-22T02:52:24.282Z,4.75
2022-09-22T02:54:54.028Z,4.55
2022-09-22T02:57:21.842Z,4.18
2022-09-22T02:59:49.703Z,4.55
2022-09-22T03:02:17.167Z,4.85
2022-09-22T03:04:44.802Z,4.47
2022-09-22T03:07:12.219Z,4.43
2022-09-22T03:09:39.836Z,4.65
2022-09-22T03:12:07.586Z,5.25
2022-09-22T03:14:35.163Z,5.05
2022-09-22T03:17:02.523Z,5.20
2022-09-22T03:19:30.304Z,4.85
2022-09-22T03:21:57.737Z,4.85
2022-09-22T03:24:25.190Z,5.05
2022-09-22T03:26:52.869Z,4.57
2022-09-22T03:29:20.236Z,4.97
2022-09-22T03:31:47.795Z,5.25
2022-09-22T03:34:15.590Z,4.30
2022-09-22T03:36:43.091Z,4.80
2022-09-22T03:39:10.445Z,4.62
2022-09-22T03:41:38.136Z,5.78
2022-09-22T03:44:05.925Z,5.97
2022-09-22T03:46:34.580Z,9.30
2022-09-22T03:49:03.356Z,14.15
2022-09-22T03:51:33.098Z,9.10
2022-09-22T03:54:00.784Z,7.62
2022-09-22T03:56:28.452Z,6.07
2022-09-22T03:58:56.164Z,5.55
2022-09-22T04:01:23.680Z,5.87
2022-09-22T04:03:51.331Z,5.80
2022-09-22T04:06:19.709Z,5.37
2022-09-22T04:08:47.108Z,4.82
2022-09-22T04:11:14.750Z,5.03
2022-09-22T04:13:46.193Z,4.80
2022-09-22T04:16:14.202Z,4.80
2022-09-22T04:18:41.974Z,4.57
2022-09-22T04:21:09.454Z,4.85
2022-09-22T04:23:36.891Z,6.10
2022-09-22T04:26:05.112Z,5.85
2022-09-22T04:28:32.722Z,4.90
2022-09-22T04:31:00.410Z,5.05
2022-09-22T04:33:28.256Z,5.55
2022-09-22T04:35:55.731Z,5.57
2022-09-22T04:38:23.078Z,5.65
2022-09-22T04:40:52.880Z,6.20
2022-09-22T04:43:20.372Z,6.43
2022-09-22T04:45:48.985Z,6.10
2022-09-22T04:48:17.128Z,6.43
2022-09-22T04:50:48.137Z,7.85
2022-09-22T04:53:15.943Z,6.87
2022-09-22T04:55:43.699Z,7.12
2022-09-22T04:58:11.469Z,6.70
2022-09-22T05:00:39.154Z,5.90
2022-09-22T05:03:11.036Z,6.20
2022-09-22T05:05:38.704Z,6.47
2022-09-22T05:08:06.974Z,6.57
2022-09-22T05:10:35.825Z,6.30
2022-09-22T05:13:03.882Z,5.95
2022-09-22T05:15:33.180Z,5.70
2022-09-22T05:18:00.908Z,5.47
2022-09-22T05:20:28.453Z,4.62
2022-09-22T05:22:55.957Z,5.45
2022-09-22T05:25:23.701Z,5.65
2022-09-22T05:27:53.330Z,5.82
2022-09-22T05:30:25.546Z,6.45
2022-09-22T05:32:53.398Z,6.62
2022-09-22T05:35:23.263Z,6.75
2022-09-22T05:37:52.029Z,19.55
2022-09-22T05:40:20.788Z,24.45
2022-09-22T05:42:53.866Z,17.15
2022-09-22T05:45:22.075Z,9.57
2022-09-22T05:47:49.750Z,9.00
2022-09-22T05:50:18.483Z,7.90
2022-09-22T05:52:46.169Z,6.85
2022-09-22T05:55:13.783Z,7.72
2022-09-22T05:57:41.721Z,7.47
2022-09-22T06:00:10.697Z,7.45
2022-09-22T06:02:39.621Z,7.03
2022-09-22T06:05:07.571Z,7.45
2022-09-22T06:07:34.976Z,7.57
2022-09-22T06:10:02.492Z,7.35
2022-09-22T06:12:30.214Z,7.78
2022-09-22T06:14:57.683Z,7.45
2022-09-22T06:17:25.050Z,6.03
2022-09-22T06:19:52.750Z,6.32
2022-09-22T06:22:20.453Z,6.55
2022-09-22T06:24:48.818Z,5.68
2022-09-22T06:27:16.680Z,6.60
2022-09-22T06:29:44.143Z,6.20
2022-09-22T06:32:11.513Z,6.80
2022-09-22T06:34:39.238Z,6.85
2022-09-22T06:37:09.429Z,6.25
2022-09-22T06:39:37.844Z,6.40
2022-09-22T06:42:06.225Z,5.87
2022-09-22T06:44:33.949Z,6.10
2022-09-22T06:47:05.398Z,6.32
2022-09-22T06:49:33.204Z,5.97
2022-09-22T06:52:00.694Z,5.15
2022-09-22T06:54:28.136Z,5.20
2022-09-22T06:56:55.817Z,5.60
2022-09-22T06:59:23.326Z,4.62
2022-09-22T07:01:50.825Z,5.03
2022-09-22T07:04:20.173Z,4.78
2022-09-22T07:06:50.407Z,4.62
2022-09-22T07:09:18.066Z,3.95
2022-09-22T07:11:47.408Z,3.97
2022-09-22T07:14:15.128Z,4.43
2022-09-22T07:16:44.423Z,4.30
2022-09-22T07:19:12.038Z,4.40
2022-09-22T07:21:40.505Z,4.15
2022-09-22T07:24:08.833Z,4.03
2022-09-22T07:26:39.210Z,4.35
2022-09-22T07:29:11.615Z,3.80
2022-09-22T07:31:40.508Z,4.00
2022-09-22T07:34:09.633Z,3.60
2022-09-22T07:36:37.982Z,4.05
2022-09-22T07:39:07.957Z,3.67
2022-09-22T07:41:41.811Z,4.03
2022-09-22T07:44:29.952Z,4.00
2022-09-22T07:46:57.760Z,3.60
2022-09-22T07:49:25.656Z,3.55
2022-09-22T07:51:55.066Z,3.87
2022-09-22T07:54:23.577Z,4.03
2022-09-22T07:56:58.381Z,3.85
2022-09-22T07:59:26.570Z,4.20
2022-09-22T08:01:54.391Z,4.10
2022-09-22T08:04:23.734Z,4.20
2022-09-22T08:06:54.404Z,4.53
2022-09-22T08:09:22.702Z,3.80
2022-09-22T08:11:50.339Z,3.78
2022-09-22T08:14:18.639Z,4.28
2022-09-22T08:16:46.515Z,3.60
2022-09-22T08:19:14.589Z,4.10
2022-09-22T08:21:49.149Z,4.65
2022-09-22T08:24:22.357Z,4.32
2022-09-22T08:26:52.559Z,4.03
2022-09-22T08:29:20.682Z,3.95
2022-09-22T08:31:49.535Z,4.15
2022-09-22T08:34:18.194Z,4.35
2022-09-22T08:36:48.730Z,4.28
2022-09-22T08:39:17.755Z,3.90
2022-09-22T08:41:56.319Z,4.15
2022-09-22T08:44:49.497Z,4.03
2022-09-22T08:47:39.528Z,3.50
2022-09-22T08:50:37.997Z,4.28
2022-09-22T08:53:08.981Z,3.70
2022-09-22T08:55:37.850Z,3.35
2022-09-22T08:58:13.995Z,2.50
2022-09-22T09:00:46.496Z,2.40
2022-09-22T09:03:24.010Z,2.12
2022-09-22T09:05:51.616Z,2.12
2022-09-22T09:08:22.375Z,2.20
2022-09-22T09:10:59.431Z,2.10
2022-09-22T09:13:54.199Z,2.10
2022-09-22T09:16:38.814Z,2.45
2022-09-22T09:19:31.911Z,2.50
2022-09-22T09:22:04.517Z,1.95
2022-09-22T09:27:26.509Z,1.65
2022-09-22T09:30:03.165Z,1.92
2022-09-22T09:32:34.533Z,2.08
2022-09-22T09:35:02.813Z,2.20
2022-09-22T09:37:30.667Z,1.90
2022-09-22T09:40:01.783Z,1.75
2022-09-22T09:42:33.180Z,1.67
2022-09-22T09:45:02.853Z,10.35
2022-09-22T09:47:47.712Z,2.00
2022-09-22T09:50:15.831Z,1.65
2022-09-22T09:52:44.954Z,2.10
2022-09-22T09:55:27.039Z,1.67
2022-09-22T09:58:11.971Z,1.95
2022-09-22T10:00:57.121Z,1.73
2022-09-22T10:03:27.938Z,1.75
2022-09-22T10:06:00.214Z,1.80
2022-09-22T10:08:28.632Z,1.80
2022-09-22T10:11:01.978Z,1.67
2022-09-22T10:13:35.772Z,1.80
2022-09-22T10:16:24.264Z,1.85
2022-09-22T10:19:21.106Z,2.87
2022-09-22T10:21:49.020Z,2.00
2022-09-22T10:24:29.038Z,1.73
2022-09-22T10:26:57.311Z,1.80
2022-09-22T10:29:25.828Z,1.80
2022-09-22T10:31:59.718Z,2.00
2022-09-22T10:34:34.869Z,1.85
2022-09-22T10:37:07.389Z,1.70
2022-09-22T10:39:43.422Z,1.70
2022-09-22T10:42:37.986Z,1.92
2022-09-22T10:45:07.230Z,1.50
2022-09-22T10:47:42.761Z,1.58
2022-09-22T10:50:31.944Z,1.75
2022-09-22T10:53:09.846Z,1.48
2022-09-22T10:55:56.092Z,1.55
2022-09-22T10:58:31.014Z,1.62
2022-09-22T11:01:13.068Z,1.37
2022-09-22T11:03:47.426Z,1.80
2022-09-22T11:06:42.943Z,1.67
2022-09-22T11:09:56.906Z,1.70
2022-09-22T11:12:51.299Z,1.60
2022-09-22T11:15:27.738Z,1.70
2022-09-22T11:18:04.532Z,1.65
2022-09-22T11:21:27.462Z,1.70
2022-09-22T11:24:14.770Z,2.08
2022-09-22T11:26:54.462Z,1.58
2022-09-22T11:29:49.123Z,1.70
2022-09-22T11:32:41.935Z,2.05
2022-09-22T11:35:25.247Z,1.50
2022-09-22T11:38:04.793Z,1.37
2022-09-22T11:43:53.473Z,1.27
2022-09-22T11:46:35.751Z,1.58
2022-09-22T11:49:22.018Z,1.37
2022-09-22T11:52:01.992Z,1.42
2022-09-22T11:54:54.364Z,1.90
2022-09-22T11:57:24.923Z,1.35
2022-09-22T12:00:18.892Z,1.35
2022-09-22T12:02:55.367Z,1.30
2022-09-22T12:05:42.168Z,1.40
2022-09-22T12:08:24.646Z,1.90
2022-09-22T12:10:52.837Z,1.80
2022-09-22T12:13:28.529Z,1.50
2022-09-22T12:16:31.957Z,1.70
2022-09-22T12:19:05.246Z,1.60
2022-09-22T12:21:46.360Z,1.85
2022-09-22T12:24:14.115Z,2.30
2022-09-22T12:26:46.315Z,1.67
2022-09-22T12:29:14.342Z,2.05
2022-09-22T12:31:50.171Z,2.05
2022-09-22T12:34:20.745Z,1.92
2022-09-22T12:36:50.610Z,1.52
2022-09-22T12:39:27.141Z,2.42
2022-09-22T12:42:00.331Z,2.03
2022-09-22T12:44:46.914Z,1.60
2022-09-22T12:47:21.443Z,1.90
2022-09-22T12:49:56.569Z,2.03
2022-09-22T12:52:42.357Z,3.33
2022-09-22T12:55:22.852Z,1.52
2022-09-22T12:58:10.068Z,1.90
2022-09-22T13:00:40.990Z,2.10
2022-09-22T13:03:26.682Z,2.20
2022-09-22T13:05:55.739Z,2.10
2022-09-22T13:08:25.801Z,2.35
2022-09-22T13:10:57.847Z,1.83
2022-09-22T13:13:36.749Z,2.08
2022-09-22T13:16:14.518Z,1.92
2022-09-22T13:18:43.575Z,2.10
2022-09-22T13:21:13.753Z,2.15
2022-09-22T13:23:59.072Z,2.10
2022-09-22T13:26:40.840Z,2.00
2022-09-22T13:29:21.271Z,2.35
2022-09-22T13:31:54.401Z,2.40
2022-09-22T13:34:32.297Z,2.40
2022-09-22T13:37:01.033Z,2.05
2022-09-22T13:39:34.540Z,1.83
2022-09-22T13:42:08.971Z,2.20
2022-09-22T13:44:39.930Z,2.42
2022-09-22T13:47:13.711Z,2.00
2022-09-22T13:49:43.943Z,2.50
2022-09-22T13:52:19.352Z,2.45
2022-09-22T13:54:50.306Z,1.83
2022-09-22T13:57:24.415Z,2.45
2022-09-22T13:59:52.597Z,2.67
2022-09-22T14:02:27.001Z,2.20
2022-09-22T14:05:02.099Z,2.40
2022-09-22T14:07:30.803Z,2.05
2022-09-22T14:09:59.571Z,2.00
2022-09-22T14:12:30.302Z,2.28
2022-09-22T14:15:32.796Z,2.50
2022-09-22T14:18:01.653Z,2.83
2022-09-22T14:20:29.395Z,2.37
2022-09-22T14:22:56.899Z,2.37
2022-09-22T14:25:24.305Z,2.65
2022-09-22T14:27:59.698Z,3.55
2022-09-22T14:30:31.140Z,2.60
2022-09-22T14:33:02.151Z,2.72
2022-09-22T14:35:32.070Z,2.17
2022-09-22T14:38:13.505Z,2.10
2022-09-22T14:40:54.789Z,2.45
2022-09-22T14:43:22.604Z,2.37
2022-09-22T14:46:38.793Z,2.30
2022-09-22T14:49:34.515Z,2.70
2022-09-22T14:54:31.020Z,2.78
2022-09-22T14:57:07.462Z,2.37
2022-09-22T14:59:56.492Z,2.22
2022-09-22T15:02:33.405Z,2.40
2022-09-22T15:05:04.973Z,2.33
2022-09-22T15:07:37.058Z,2.90
2022-09-22T15:10:19.879Z,3.15
2022-09-22T15:12:49.805Z,2.60
2022-09-22T15:15:31.867Z,3.15
2022-09-22T15:18:18.862Z,2.08
2022-09-22T15:20:50.050Z,2.80
2022-09-22T15:23:27.311Z,2.65
2022-09-22T15:25:55.759Z,2.80
2022-09-22T15:28:24.669Z,2.55
2022-09-22T15:30:53.028Z,2.95
2022-09-22T15:33:21.632Z,3.08
2022-09-22T15:36:13.004Z,3.00
2022-09-22T15:38:41.509Z,3.10
2022-09-22T15:41:14.212Z,2.65
2022-09-22T15:43:42.835Z,2.72
2022-09-22T15:46:34.118Z,3.37
2022-09-22T15:49:24.989Z,3.60
2022-09-22T15:51:52.970Z,3.50
2022-09-22T15:54:22.368Z,4.30
2022-09-22T15:56:52.616Z,5.30
2022-09-22T15:59:28.005Z,3.90
2022-09-22T16:01:57.128Z,3.95
2022-09-22T16:04:31.451Z,4.30
2022-09-22T16:07:02.394Z,5.00
2022-09-22T16:09:30.586Z,4.00
2022-09-22T16:11:57.966Z,4.62
2022-09-22T16:14:25.473Z,5.05
2022-09-22T16:16:53.148Z,5.95
2022-09-22T16:19:20.557Z,14.00
2022-09-22T16:21:52.832Z,43.05
2022-09-22T16:24:22.680Z,35.45
2022-09-22T16:26:51.816Z,46.08
2022-09-22T16:29:19.684Z,38.10
2022-09-22T16:31:47.100Z,21.90
2022-09-22T16:34:14.567Z,25.70
2022-09-22T16:36:43.204Z,28.92
2022-09-22T16:39:10.642Z,14.30
2022-09-22T16:41:44.139Z,13.23
2022-09-22T16:44:11.972Z,8.45
2022-09-22T16:46:39.436Z,5.97
2022-09-22T16:49:12.782Z,6.60
2022-09-22T16:51:42.429Z,10.10
2022-09-22T16:54:13.910Z,13.57
2022-09-22T16:56:45.356Z,19.85
2022-09-22T16:59:16.251Z,16.95
2022-09-22T17:01:44.153Z,16.65
2022-09-22T17:04:13.103Z,15.50
2022-09-22T17:06:41.707Z,16.67
2022-09-22T17:09:10.409Z,27.75
2022-09-22T17:11:40.222Z,34.08
2022-09-22T17:14:12.606Z,32.25
2022-09-22T17:16:45.658Z,26.12
2022-09-22T17:19:19.417Z,27.80
2022-09-22T17:21:48.651Z,23.48
2022-09-22T17:24:16.153Z,22.05
2022-09-22T17:26:54.896Z,21.50
2022-09-22T17:29:25.459Z,21.80
2022-09-22T17:31:57.382Z,19.23
2022-09-22T17:34:29.205Z,18.80
2022-09-22T17:36:57.298Z,19.50
2022-09-22T17:39:26.385Z,16.90
2022-09-22T17:41:55.109Z,15.60
2022-09-22T17:44:23.170Z,26.95
2022-09-22T17:47:11.298Z,23.90
2022-09-22T17:49:58.362Z,22.42
2022-09-22T17:52:31.818Z,23.70
2022-09-22T17:55:08.067Z,24.37
2022-09-22T17:57:38.435Z,20.58
2022-09-22T18:00:08.729Z,20.62
2022-09-22T18:02:37.005Z,17.17
2022-09-22T18:05:09.985Z,16.02
2022-09-22T18:07:40.165Z,16.98
2022-09-22T18:10:09.768Z,20.05
2022-09-22T18:12:37.226Z,18.90
2022-09-22T18:15:05.559Z,27.15
2022-09-22T18:17:43.920Z,34.92
2022-09-22T18:20:14.112Z,37.83
2022-09-22T18:22:48.378Z,32.53
2022-09-22T18:25:19.376Z,28.42
2022-09-22T18:27:48.491Z,25.60
2022-09-22T18:30:19.117Z,24.63
2022-09-22T18:32:47.647Z,24.10
2022-09-22T18:35:15.231Z,13.90
2022-09-22T18:37:43.367Z,11.07
2022-09-22T18:40:12.550Z,7.85
2022-09-22T18:42:43.714Z,7.43
2022-09-22T18:45:12.715Z,8.60
2022-09-22T18:47:42.032Z,8.02
2022-09-22T18:50:11.001Z,8.43
2022-09-22T18:52:42.751Z,10.45
2022-09-22T18:55:11.651Z,10.27
2022-09-22T18:57:39.366Z,10.40
2022-09-22T19:00:07.491Z,12.85
2022-09-22T19:02:35.228Z,10.50
2022-09-22T19:05:03.100Z,9.60
2022-09-22T19:07:43.872Z,8.13
2022-09-22T19:10:14.838Z,7.45
2022-09-22T19:12:42.702Z,8.55
2022-09-22T19:15:16.756Z,7.50
2022-09-22T19:17:47.016Z,7.10
2022-09-22T19:20:21.255Z,8.05
2022-09-22T19:22:50.360Z,8.38
2022-09-22T19:25:18.819Z,10.15
2022-09-22T19:27:46.272Z,9.60
2022-09-22T19:30:14.073Z,8.93
2022-09-22T19:32:41.462Z,8.05
2022-09-22T19:35:09.790Z,9.27
2022-09-22T19:37:37.471Z,9.07
2022-09-22T19:40:06.715Z,7.93
2022-09-22T19:42:40.089Z,6.47
2022-09-22T19:45:09.034Z,7.95
2022-09-22T19:47:37.025Z,7.75
2022-09-22T19:50:08.141Z,9.57
2022-09-22T19:52:36.645Z,9.25
2022-09-22T19:55:05.857Z,8.07
2022-09-22T19:57:33.231Z,7.25
2022-09-22T20:00:01.027Z,8.73
2022-09-22T20:02:28.440Z,8.35
2022-09-22T20:04:56.110Z,9.35
2022-09-22T20:07:27.762Z,9.35
2022-09-22T20:09:56.477Z,9.55
2022-09-22T20:12:24.403Z,10.20
2022-09-22T20:14:51.811Z,8.55
2022-09-22T20:17:19.173Z,7.12
2022-09-22T20:19:46.849Z,7.43
2022-09-22T20:22:20.286Z,8.43
2022-09-22T20:24:54.025Z,9.40
2022-09-22T20:27:26.429Z,7.82
2022-09-22T20:29:57.331Z,7.40
2022-09-22T20:32:26.246Z,5.97
2022-09-22T20:34:55.419Z,5.70
2022-09-22T20:37:23.170Z,6.93
2022-09-22T20:39:50.893Z,8.88
2022-09-22T20:42:18.895Z,9.75
2022-09-22T20:44:47.037Z,6.85
2022-09-22T20:47:18.731Z,6.70
2022-09-22T20:49:50.860Z,7.25
2022-09-22T20:52:20.237Z,6.03
2022-09-22T20:54:48.823Z,6.18
2022-09-22T20:57:16.826Z,6.10
2022-09-22T20:59:45.851Z,5.25
2022-09-22T21:02:14.819Z,5.45
2022-09-22T21:04:42.366Z,6.03
2022-09-22T21:07:11.452Z,6.75
2022-09-22T21:09:57.909Z,8.20
2022-09-22T21:12:30.756Z,8.25
2022-09-22T21:14:59.089Z,7.53
2022-09-22T21:17:27.842Z,8.05
2022-09-22T21:19:57.666Z,8.13
2022-09-22T21:22:28.071Z,6.87
2022-09-22T21:24:56.415Z,7.12
2022-09-22T21:27:25.124Z,6.85
2022-09-22T21:29:54.022Z,7.28
2022-09-22T21:32:21.358Z,8.13
2022-09-22T21:34:48.992Z,9.63
2022-09-22T21:37:16.636Z,8.85
2022-09-22T21:39:43.955Z,5.60
2022-09-22T21:42:11.279Z,6.85
2022-09-22T21:44:39.244Z,6.15
2022-09-22T21:47:06.839Z,5.75
2022-09-22T21:49:34.179Z,6.07
2022-09-22T21:52:01.838Z,5.55
2022-09-22T21:54:31.157Z,6.00
2022-09-22T21:56:58.500Z,5.90
2022-09-22T21:59:26.226Z,6.95
2022-09-22T22:01:53.632Z,6.78
2022-09-22T22:04:21.859Z,6.55
2022-09-22T22:06:49.291Z,6.40
2022-09-22T22:09:22.056Z,7.60
2022-09-22T22:11:55.595Z,5.22
2022-09-22T22:14:26.431Z,5.80
2022-09-22T22:16:55.099Z,5.03
2022-09-22T22:19:25.644Z,5.37
2022-09-22T22:21:53.913Z,5.07
2022-09-22T22:24:28.807Z,5.40
2022-09-22T22:29:34.696Z,5.62
2022-09-22T22:32:04.144Z,7.00
2022-09-22T22:34:31.727Z,7.18
2022-09-22T22:36:59.532Z,6.35
2022-09-22T22:39:26.874Z,5.20
2022-09-22T22:41:57.303Z,5.43
2022-09-22T22:44:24.642Z,5.55
2022-09-22T22:46:51.965Z,6.30
2022-09-22T22:49:19.818Z,6.53
2022-09-22T22:51:49.151Z,5.72
2022-09-22T22:54:16.688Z,6.10
2022-09-22T22:56:46.829Z,6.32
2022-09-22T22:59:18.164Z,5.57
2022-09-22T23:01:45.837Z,5.95
2022-09-22T23:04:13.293Z,6.00
2022-09-22T23:06:44.450Z,5.82
2022-09-22T23:09:15.024Z,6.10
2022-09-22T23:11:43.269Z,5.22
2022-09-22T23:14:12.017Z,5.28
2022-09-22T23:16:44.933Z,5.65
2022-09-22T23:19:14.295Z,5.55
2022-09-22T23:21:42.089Z,5.62
2022-09-22T23:24:09.440Z,5.93
2022-09-22T23:26:37.613Z,5.50
2022-09-22T23:29:06.071Z,5.25
2022-09-22T23:31:33.524Z,5.20
2022-09-22T23:34:01.203Z,4.65
2022-09-22T23:36:29.319Z,6.25
2022-09-22T23:39:03.475Z,5.50
2022-09-22T23:41:33.140Z,6.43
2022-09-22T23:44:00.724Z,6.20
2022-09-22T23:46:28.140Z,5.20
2022-09-22T23:48:55.934Z,5.57
2022-09-22T23:51:24.118Z,5.65
2022-09-22T23:53:51.831Z,5.95
2022-09-22T23:56:19.711Z,5.55
2022-09-22T23:58:47.605Z,5.15
